Bloomfield, NY (14469)

7:41 PM EDT on June 24, 2017 (GMT -0400)
Bristol Hills | | Change Station

Elev 1230 ft 42.87 °N, 77.44 °W | Updated 1 minute ago

Partly Cloudy
Partly Cloudy
63.6 °F
Feels Like 63.6 °F
N
1.0
Wind Variable Wind from West
Gusts 8.0 mph

Today
High -- | Low -- °F
--% Chance of Precip.
Yesterday
High -- | Low -- °F
Precip. -- in
Pressure 29.87 in
Visibility 8.0 miles
Clouds Few 4300 ft
Scattered Clouds 7000 ft
Mostly Cloudy 9000 ft
Dew Point 55 °F
Humidity 73%
Rainfall 0.27 in
Snow Depth Not available.
5:32 AM 8:52 PM
New Moon, 1% visible
METAR KROC 242254Z 25008KT 8SM -RA FEW043 SCT070 BKN090 17/14 A2987 RMK AO2 SLP115 TSE30 TS OHD MOV E P0018 T01720139
Pressure 29.87 in
Visibility 8.0 miles
Clouds Few 4300 ft
Scattered Clouds 7000 ft
Mostly Cloudy 9000 ft
Dew Point 55 °F
Humidity 73%
Rainfall 0.27 in
Snow Depth Not available.
5:32 AM 8:52 PM
New Moon, 1% visible
METAR KROC 242254Z 25008KT 8SM -RA FEW043 SCT070 BKN090 17/14 A2987 RMK AO2 SLP115 TSE30 TS OHD MOV E P0018 T01720139

Get Severe Weather Alerts

Thanks for signing up!

Be on the lookout for a verification email in your inbox.

You'll start receiving the daily forecast at 6 AM.

×

10-Day Weather Forecast

Almanac

Astronomy

Jun. 24, 2017 Rise Set
Actual Time
Civil Twilight
Nautical Twilight
Astronomical Twilight
Moon
Length of Visible Light
Length of Day
Tomorrow will be .
, % of the Moon is Illuminated

Today's Extremes

State Highs State Lows

Community

WunderPhotos

Category 6

Welcome to Category 6. This is the collective home for Weather Underground's featured writeups by Dr. Jeff Masters (right), Bob Henson (left), Chris Burt, and other regular contributors.

Nearby

Air Quality

  Air Quality AQ Index Pollutant
Not available.

Snow Depth

Station Depth Elevation

Earthquake Activity

City Distance Mag. Time & Date
Minimum magnitude displayed is 2.5.

Coastal Water Temperatures

Place Temperature

Stations

Nearby Weather Stations

Station Location Temp. Windchill Dew Point Humidity Wind Precip. Elev Updated Type
                   

Watches & Warnings

There are currently no watches in effect.